Time;durP1;ratioP1;P1;durP2;ratioP2;P2;SDS_P1;SDS_P2;PMS_P1;PMS_P2;Temp;Humidity;BMP_temperature;BMP_pressure;BME280_temperature;BME280_humidity;BME280_pressure;Samples;Min_cycle;Max_cycle;Signal;HPM_P1;HPM_P2
2021/12/24 00:00:40;;;;;;;;;18.50;15.75;;;;;7.59;100.00;100252.41;4992516;28;10773;-69
2021/12/24 00:03:07;;;;;;;;;19.00;13.50;;;;;7.68;100.00;100248.63;4998262;28;11037;-69
2021/12/24 00:05:35;;;;;;;;;16.75;14.50;;;;;7.63;100.00;100253.72;4996490;28;11480;-68
2021/12/24 00:08:03;;;;;;;;;14.00;10.75;;;;;7.60;100.00;100243.31;4999106;28;10675;-68
2021/12/24 00:10:31;;;;;;;;;12.00;12.00;;;;;7.65;100.00;100248.97;4997314;28;11455;-68
2021/12/24 00:13:06;;;;;;;;;12.00;11.00;;;;;7.76;100.00;100246.88;4993985;28;10731;-68
2021/12/24 00:18:37;;;;;;;;;11.00;8.00;;;;;7.85;100.00;100234.97;4995860;28;10670;-69
2021/12/24 00:37:13;;;;;;;;;9.50;7.75;;;;;8.09;100.00;100226.56;4997065;28;10584;-69
2021/12/24 00:39:50;;;;;;;;;6.25;6.00;;;;;8.09;100.00;100231.13;4987739;28;10478;-69
2021/12/24 00:42:17;;;;;;;;;10.00;10.00;;;;;8.13;100.00;100225.16;4997958;28;10460;-69
2021/12/24 00:44:44;;;;;;;;;14.50;14.00;;;;;8.17;100.00;100231.84;4995592;28;10482;-69
2021/12/24 00:47:10;;;;;;;;;6.50;6.50;;;;;8.20;100.00;100231.50;4996841;28;10504;-69
2021/12/24 00:49:37;;;;;;;;;8.25;7.75;;;;;8.24;100.00;100227.41;4998101;28;10439;-68
2021/12/24 00:52:19;;;;;;;;;12.50;11.00;;;;;8.26;100.00;100229.91;4987978;28;10383;-69
2021/12/24 00:55:03;;;;;;;;;15.25;13.25;;;;;8.26;100.00;100232.59;4993368;28;10552;-68
2021/12/24 00:57:41;;;;;;;;;12.00;12.00;;;;;8.27;100.00;100232.41;4986062;28;10680;-69
2021/12/24 01:00:21;;;;;;;;;12.50;12.00;;;;;8.33;100.00;100234.38;5009200;28;10451;-69
2021/12/24 01:02:50;;;;;;;;;14.50;10.00;;;;;8.30;100.00;100226.63;4997395;28;10521;-69
2021/12/24 01:05:18;;;;;;;;;12.25;12.25;;;;;8.30;100.00;100223.94;4996774;28;10453;-68
2021/12/24 01:07:46;;;;;;;;;16.75;16.25;;;;;8.40;100.00;100222.81;4988197;28;10706;-69
2021/12/24 01:10:15;;;;;;;;;24.75;19.00;;;;;8.42;100.00;100226.16;4987565;28;10722;-69
2021/12/24 01:12:41;;;;;;;;;21.00;18.50;;;;;8.41;100.00;100221.78;4980617;28;11014;-70
2021/12/24 01:15:09;;;;;;;;;18.50;16.50;;;;;8.41;100.00;100230.72;4986844;28;11516;-70
2021/12/24 01:20:17;;;;;;;;;22.25;18.25;;;;;8.42;100.00;100232.38;4996489;28;10761;-69
2021/12/24 01:45:00;;;;;;;;;22.25;21.00;;;;;8.53;100.00;100239.16;5009608;28;11739;-70
2021/12/24 01:47:26;;;;;;;;;16.50;16.00;;;;;8.50;100.00;100239.56;4994144;28;10719;-69
2021/12/24 01:49:53;;;;;;;;;14.25;13.00;;;;;8.53;100.00;100229.22;4987899;28;10612;-69
2021/12/24 01:52:21;;;;;;;;;26.00;19.75;;;;;8.56;100.00;100230.69;5001983;28;10405;-69
2021/12/24 01:54:53;;;;;;;;;27.50;19.50;;;;;8.56;100.00;100244.19;4987617;28;10731;-69
2021/12/24 01:57:19;;;;;;;;;24.50;20.00;;;;;8.55;100.00;100229.84;4989358;28;10739;-69
2021/12/24 01:59:46;;;;;;;;;21.75;19.50;;;;;8.57;100.00;100235.06;4993862;28;10813;-69
2021/12/24 02:02:12;;;;;;;;;22.25;19.50;;;;;8.59;100.00;100238.41;4994450;28;10581;-69
2021/12/24 02:04:39;;;;;;;;;15.00;14.25;;;;;8.58;100.00;100232.16;4986217;28;10508;-69
2021/12/24 02:07:07;;;;;;;;;21.50;16.50;;;;;8.58;100.00;100239.44;4995812;28;10499;-69
2021/12/24 02:09:34;;;;;;;;;23.75;21.50;;;;;8.60;100.00;100231.97;4987582;28;10495;-69
2021/12/24 02:12:05;;;;;;;;;25.00;22.50;;;;;8.58;100.00;100242.13;4996090;28;10839;-70
2021/12/24 02:14:36;;;;;;;;;21.00;16.25;;;;;8.58;100.00;100234.88;4999826;28;10812;-70
2021/12/24 02:28:18;;;;;;;;;20.00;17.75;;;;;8.63;100.00;100234.28;4992897;28;10730;-70
2021/12/24 02:30:49;;;;;;;;;18.00;15.00;;;;;8.58;100.00;100229.47;5013963;28;10706;-69
2021/12/24 02:33:15;;;;;;;;;20.75;19.00;;;;;8.60;100.00;100230.13;5002695;28;10592;-69
2021/12/24 02:35:42;;;;;;;;;19.00;17.50;;;;;8.62;100.00;100233.44;4989571;28;10761;-71
2021/12/24 02:38:09;;;;;;;;;14.25;11.75;;;;;8.63;100.00;100234.28;4991839;28;11327;-68
2021/12/24 02:40:36;;;;;;;;;18.75;17.00;;;;;8.63;100.00;100229.72;4990278;28;10516;-69
2021/12/24 02:43:03;;;;;;;;;15.75;15.75;;;;;8.63;100.00;100234.28;5000323;28;11276;-69
2021/12/24 02:45:33;;;;;;;;;21.25;18.25;;;;;8.65;100.00;100224.13;5006139;28;10360;-69
2021/12/24 02:56:05;;;;;;;;;13.00;13.00;;;;;8.64;100.00;100236.78;5000107;28;10666;-69
2021/12/24 02:58:55;;;;;;;;;18.75;17.00;;;;;8.66;100.00;100238.47;4997454;28;10512;-69
2021/12/24 03:01:25;;;;;;;;;13.50;11.00;;;;;8.63;100.00;100228.88;4995187;28;10510;-70
2021/12/24 03:03:52;;;;;;;;;19.50;15.75;;;;;8.64;100.00;100222.47;4989980;28;10438;-68
2021/12/24 03:06:25;;;;;;;;;18.75;17.00;;;;;8.61;100.00;100229.09;4989819;28;10655;-68
2021/12/24 03:08:53;;;;;;;;;18.50;13.50;;;;;8.60;100.00;100219.31;4998223;28;10805;-69
2021/12/24 03:11:20;;;;;;;;;13.50;11.00;;;;;8.59;100.00;100228.44;5014676;28;10458;-68
2021/12/24 03:13:48;;;;;;;;;15.00;13.50;;;;;8.60;100.00;100230.13;5004832;28;10397;-69
2021/12/24 03:16:15;;;;;;;;;17.50;15.00;;;;;8.60;100.00;100224.72;5005854;28;10243;-69
2021/12/24 03:18:43;;;;;;;;;15.50;14.00;;;;;8.58;100.00;100226.78;4989186;28;10441;-69
2021/12/24 03:21:29;;;;;;;;;16.50;10.50;;;;;8.57;100.00;100222.41;4973187;28;10307;-69
2021/12/24 03:26:37;;;;;;;;;11.50;10.25;;;;;8.59;100.00;100228.44;5009821;28;10417;-69
2021/12/24 03:29:06;;;;;;;;;12.00;11.00;;;;;8.58;100.00;100234.88;4997047;28;10486;-70
2021/12/24 03:31:34;;;;;;;;;13.50;13.00;;;;;8.58;100.00;100223.25;4995497;28;10419;-69
2021/12/24 03:34:01;;;;;;;;;10.75;10.75;;;;;8.58;100.00;100234.03;4998800;28;10517;-69
2021/12/24 03:36:27;;;;;;;;;11.00;10.75;;;;;8.57;100.00;100225.09;4998681;28;10269;-72
2021/12/24 03:38:56;;;;;;;;;16.50;14.50;;;;;8.57;100.00;100225.09;4988735;28;10355;-69
2021/12/24 03:41:24;;;;;;;;;13.50;13.00;;;;;8.58;100.00;100226.78;5004410;28;10336;-69
2021/12/24 03:43:53;;;;;;;;;14.25;11.00;;;;;8.54;100.00;100225.50;4996518;28;10487;-68
2021/12/24 03:46:27;;;;;;;;;11.25;11.25;;;;;8.52;100.00;100222.16;4997567;28;10354;-71
2021/12/24 03:48:58;;;;;;;;;15.00;11.00;;;;;8.53;100.00;100217.59;4989579;28;10178;-68
2021/12/24 03:56:44;;;;;;;;;14.25;10.50;;;;;8.52;100.00;100215.91;4995629;28;10580;-71
2021/12/24 03:59:30;;;;;;;;;15.25;11.75;;;;;8.53;100.00;100226.50;4999108;28;10233;-69
2021/12/24 04:02:15;;;;;;;;;18.25;13.00;;;;;8.54;100.00;100224.66;5004034;28;10234;-68
2021/12/24 04:05:08;;;;;;;;;12.50;10.00;;;;;8.53;100.00;100231.91;4995859;28;11158;-70
2021/12/24 04:08:10;;;;;;;;;19.50;12.50;;;;;8.52;100.00;100234.81;5005161;28;10435;-69
2021/12/24 04:11:00;;;;;;;;;16.75;10.50;;;;;8.51;100.00;100231.28;4988566;28;10622;-71
2021/12/24 04:13:32;;;;;;;;;13.25;10.75;;;;;8.49;100.00;100230.63;4990899;28;10347;-68
2021/12/24 04:15:59;;;;;;;;;12.75;12.75;;;;;8.51;100.00;100230.44;4995259;28;10450;-71
2021/12/24 04:26:28;;;;;;;;;10.25;5.50;;;;;8.45;100.00;100233.91;4997405;28;10308;-68
2021/12/24 04:28:56;;;;;;;;;14.50;8.50;;;;;8.44;100.00;100234.94;4997567;28;10632;-68
2021/12/24 04:31:30;;;;;;;;;14.25;13.50;;;;;8.45;100.00;100234.75;4997643;28;10387;-70
2021/12/24 04:34:25;;;;;;;;;11.50;10.00;;;;;8.46;100.00;100236.41;4998356;28;10578;-69
2021/12/24 04:37:40;;;;;;;;;9.25;8.50;;;;;8.44;100.00;100226.84;5004959;28;10578;-68
2021/12/24 04:51:05;;;;;;;;;12.25;9.50;;;;;8.44;100.00;100233.06;5004661;28;10147;-70
2021/12/24 05:02:01;;;;;;;;;5.50;5.50;;;;;8.39;100.00;100235.47;4996147;28;10403;-69
2021/12/24 05:04:32;;;;;;;;;8.75;5.50;;;;;8.39;100.00;100226.53;4993663;28;11009;-69
2021/12/24 05:07:09;;;;;;;;;8.50;8.50;;;;;8.37;100.00;100224.03;4987994;28;11014;-68
2021/12/24 05:09:39;;;;;;;;;8.00;7.00;;;;;8.37;100.00;100223.19;5004192;28;10260;-70
2021/12/24 05:12:06;;;;;;;;;6.75;6.50;;;;;8.35;100.00;100223.41;5003860;28;10223;-69
2021/12/24 05:14:33;;;;;;;;;11.50;9.75;;;;;8.32;100.00;100227.28;5003046;28;10108;-69
2021/12/24 05:17:31;;;;;;;;;9.25;8.00;;;;;8.32;100.00;100232.66;4995281;28;10230;-69
2021/12/24 05:23:17;;;;;;;;;7.00;7.00;;;;;8.30;100.00;100234.72;5003223;28;10307;-68
2021/12/24 05:25:46;;;;;;;;;10.00;9.50;;;;;8.31;100.00;100235.56;4995783;28;10163;-68
2021/12/24 05:28:14;;;;;;;;;6.50;6.00;;;;;8.32;100.00;100231.84;4993460;28;10154;-69
2021/12/24 05:30:41;;;;;;;;;6.75;5.00;;;;;8.30;100.00;100237.41;4990312;28;10477;-70
2021/12/24 05:33:12;;;;;;;;;12.00;7.00;;;;;8.29;100.00;100237.63;5000934;28;10316;-69
2021/12/24 05:35:40;;;;;;;;;7.75;6.75;;;;;8.29;100.00;100232.22;4993924;28;10390;-69
2021/12/24 05:38:10;;;;;;;;;9.25;8.50;;;;;8.28;100.00;100225.16;4994089;28;10250;-69
2021/12/24 05:40:38;;;;;;;;;9.00;4.75;;;;;8.26;100.00;100221.81;4985644;28;10173;-68
2021/12/24 05:43:05;;;;;;;;;9.00;6.25;;;;;8.23;100.00;100228.44;4995535;28;10231;-69
2021/12/24 05:45:32;;;;;;;;;7.00;4.75;;;;;8.22;100.00;100231.31;5010347;28;10281;-68
2021/12/24 05:48:13;;;;;;;;;6.75;6.75;;;;;8.21;100.00;100226.94;4997303;28;10260;-68
2021/12/24 05:50:40;;;;;;;;;6.75;4.75;;;;;8.17;100.00;100231.84;5001727;28;10303;-69
2021/12/24 05:53:25;;;;;;;;;6.25;5.00;;;;;8.18;100.00;100238.06;4996563;28;10153;-69
2021/12/24 05:56:06;;;;;;;;;4.50;4.50;;;;;8.18;100.00;100238.94;5010652;28;10984;-68
2021/12/24 05:58:33;;;;;;;;;7.25;4.00;;;;;8.17;100.00;100237.25;4985505;28;10101;-69
2021/12/24 06:00:59;;;;;;;;;5.00;4.25;;;;;8.14;100.00;100244.88;4992039;28;10147;-69
2021/12/24 06:03:38;;;;;;;;;6.50;6.50;;;;;8.12;100.00;100246.94;5005368;28;10425;-69
2021/12/24 06:06:05;;;;;;;;;6.50;4.00;;;;;8.10;100.00;100247.13;4996140;28;10292;-70
2021/12/24 06:08:31;;;;;;;;;8.00;6.25;;;;;8.09;100.00;100245.44;4992272;28;10086;-68
2021/12/24 06:11:03;;;;;;;;;4.50;4.00;;;;;8.12;100.00;100249.63;5000528;28;10111;-68
2021/12/24 06:13:30;;;;;;;;;6.75;6.75;;;;;8.11;100.00;100254.19;5000871;28;11271;-69
2021/12/24 06:15:56;;;;;;;;;4.75;4.75;;;;;8.10;100.00;100251.66;4998451;28;10172;-69
2021/12/24 06:18:27;;;;;;;;;8.50;7.25;;;;;8.10;100.00;100247.13;4999142;28;10480;-69
2021/12/24 06:20:57;;;;;;;;;8.00;7.50;;;;;8.13;100.00;100251.28;4997558;28;10237;-70
2021/12/24 06:23:25;;;;;;;;;2.25;2.25;;;;;8.13;100.00;100254.00;5000825;28;10264;-70
2021/12/24 06:25:54;;;;;;;;;5.50;3.50;;;;;8.13;100.00;100260.22;4997448;28;10046;-69
2021/12/24 06:28:22;;;;;;;;;6.00;5.50;;;;;8.10;100.00;100257.91;4998852;28;10116;-69
2021/12/24 06:30:50;;;;;;;;;4.50;2.00;;;;;8.11;100.00;100259.56;5013866;28;10065;-69
2021/12/24 06:33:17;;;;;;;;;9.25;6.50;;;;;8.12;100.00;100257.72;4997266;28;10116;-69
2021/12/24 06:35:45;;;;;;;;;6.25;4.00;;;;;8.09;100.00;100256.22;4998427;28;10281;-70
2021/12/24 06:38:12;;;;;;;;;4.50;4.00;;;;;8.07;100.00;100258.28;4998929;28;10300;-69
2021/12/24 06:40:39;;;;;;;;;2.00;2.00;;;;;8.11;100.00;100259.56;5000289;28;10088;-70
2021/12/24 06:43:06;;;;;;;;;4.00;1.00;;;;;8.09;100.00;100261.63;5001233;28;10057;-69
2021/12/24 06:45:33;;;;;;;;;3.00;3.00;;;;;8.11;100.00;100261.44;5000322;28;10207;-69
2021/12/24 06:48:02;;;;;;;;;2.00;2.00;;;;;8.08;100.00;100259.94;4995130;28;10063;-70
2021/12/24 06:50:29;;;;;;;;;6.50;5.50;;;;;8.09;100.00;100267.00;4999957;28;10040;-70
2021/12/24 06:52:56;;;;;;;;;4.50;3.00;;;;;8.11;100.00;100272.22;4995037;28;10168;-69
2021/12/24 06:55:24;;;;;;;;;8.00;4.50;;;;;8.12;100.00;100273.88;4999477;28;10264;-70
2021/12/24 06:57:56;;;;;;;;;6.00;4.50;;;;;8.10;100.00;100276.78;4995503;28;10168;-70
2021/12/24 07:00:23;;;;;;;;;3.00;3.00;;;;;8.11;100.00;100270.34;4990211;28;10014;-69
2021/12/24 07:02:53;;;;;;;;;4.75;4.00;;;;;8.12;100.00;100273.88;4994915;28;9938;-70
2021/12/24 07:05:20;;;;;;;;;4.75;4.25;;;;;8.11;100.00;100264.97;5005194;28;10985;-69
2021/12/24 07:07:46;;;;;;;;;4.50;3.00;;;;;8.14;100.00;100271.84;4998875;28;10130;-69
2021/12/24 07:10:14;;;;;;;;;3.00;3.00;;;;;8.14;100.00;100264.59;4999886;28;10213;-69
2021/12/24 07:12:41;;;;;;;;;6.50;6.00;;;;;8.15;100.00;100260.03;4996858;28;10180;-69
2021/12/24 07:15:08;;;;;;;;;6.00;5.00;;;;;8.14;100.00;100278.06;4994431;28;10268;-69
2021/12/24 07:17:35;;;;;;;;;4.00;4.00;;;;;8.15;100.00;100268.13;5004409;28;10290;-68
2021/12/24 07:20:03;;;;;;;;;6.50;4.00;;;;;8.15;100.00;100268.94;4999028;28;10145;-70
2021/12/24 07:22:29;;;;;;;;;11.00;3.50;;;;;8.17;100.00;100272.28;4997774;28;10127;-69
2021/12/24 07:24:56;;;;;;;;;5.00;4.50;;;;;8.17;100.00;100271.47;4989046;28;10275;-70
2021/12/24 07:27:22;;;;;;;;;7.00;5.50;;;;;8.17;100.00;100276.84;4996187;28;10386;-68
2021/12/24 07:29:49;;;;;;;;;8.00;5.00;;;;;8.16;100.00;100278.72;4997376;28;10621;-68
2021/12/24 07:32:16;;;;;;;;;5.00;3.50;;;;;8.18;100.00;100275.81;4994990;28;10282;-68
2021/12/24 07:34:43;;;;;;;;;3.75;2.50;;;;;8.19;100.00;100274.84;4996607;28;9915;-68
2021/12/24 07:37:09;;;;;;;;;5.50;3.25;;;;;8.18;100.00;100271.31;4995637;28;10170;-69
2021/12/24 07:39:36;;;;;;;;;6.75;5.25;;;;;8.20;100.00;100274.66;5000159;28;10350;-70
2021/12/24 07:42:02;;;;;;;;;4.00;4.00;;;;;8.19;100.00;100285.63;4995430;28;10252;-69
2021/12/24 07:44:30;;;;;;;;;6.00;4.50;;;;;8.20;100.00;100280.03;4997752;28;10244;-69
2021/12/24 07:47:00;;;;;;;;;7.00;6.00;;;;;8.23;100.00;100282.34;4996538;28;10060;-70
2021/12/24 07:52:09;;;;;;;;;4.25;4.25;;;;;8.23;100.00;100279.66;4995561;28;10298;-70
2021/12/24 07:54:39;;;;;;;;;3.00;3.00;;;;;8.24;100.00;100284.03;5006318;28;9927;-68
2021/12/24 07:57:07;;;;;;;;;4.75;2.00;;;;;8.25;100.00;100277.59;4995649;28;10293;-69
2021/12/24 07:59:38;;;;;;;;;3.75;3.50;;;;;8.23;100.00;100282.34;4999238;28;10007;-69
2021/12/24 08:02:14;;;;;;;;;5.75;3.50;;;;;8.25;100.00;100291.09;4990346;28;10132;-69
2021/12/24 08:04:43;;;;;;;;;6.50;4.00;;;;;8.26;100.00;100286.53;4996747;28;10197;-68
2021/12/24 08:07:10;;;;;;;;;7.00;6.25;;;;;8.25;100.00;100287.56;5010965;28;10042;-68
2021/12/24 08:09:37;;;;;;;;;6.00;6.00;;;;;8.26;100.00;100295.47;4997604;28;10958;-69
2021/12/24 08:12:09;;;;;;;;;2.00;2.00;;;;;8.28;100.00;100293.41;4993140;28;10116;-69
2021/12/24 08:14:36;;;;;;;;;8.50;3.00;;;;;8.29;100.00;100289.69;4997562;28;10098;-69
2021/12/24 08:17:04;;;;;;;;;6.00;5.25;;;;;8.30;100.00;100288.66;4996379;28;10037;-70
2021/12/24 08:19:30;;;;;;;;;3.00;2.00;;;;;8.31;100.00;100293.03;4993936;28;10109;-69
2021/12/24 08:21:58;;;;;;;;;10.25;6.50;;;;;8.31;100.00;100284.94;4989210;28;10156;-69
2021/12/24 08:24:25;;;;;;;;;4.00;2.00;;;;;8.33;100.00;100282.06;4999350;28;10375;-70
2021/12/24 08:26:52;;;;;;;;;4.00;4.00;;;;;8.35;100.00;100282.72;4993432;28;10171;-69
2021/12/24 08:29:19;;;;;;;;;2.50;2.00;;;;;8.38;100.00;100282.34;4994081;28;10034;-70
2021/12/24 08:31:45;;;;;;;;;4.50;3.00;;;;;8.37;100.00;100272.59;4996296;28;10162;-70
2021/12/24 08:34:12;;;;;;;;;3.00;2.00;;;;;8.41;100.00;100273.03;4995185;28;10156;-70
2021/12/24 08:36:39;;;;;;;;;5.50;3.50;;;;;8.41;100.00;100276.56;4995791;28;10093;-69
2021/12/24 08:39:06;;;;;;;;;3.50;3.50;;;;;8.41;100.00;100275.75;4994883;28;10193;-70
2021/12/24 08:41:32;;;;;;;;;3.00;3.00;;;;;8.41;100.00;100273.03;4995284;28;10147;-70
2021/12/24 08:43:59;;;;;;;;;5.25;4.00;;;;;8.42;100.00;100278.25;4996886;28;10890;-69
2021/12/24 08:46:25;;;;;;;;;2.50;1.25;;;;;8.42;100.00;100262.06;4994136;28;9864;-69
2021/12/24 08:48:56;;;;;;;;;0.75;0.75;;;;;8.43;100.00;100265.63;4993520;28;9936;-69
2021/12/24 08:51:22;;;;;;;;;5.67;3.67;;;;;8.44;100.00;100262.75;4994205;28;9868;-69
2021/12/24 08:53:49;;;;;;;;;2.50;1.75;;;;;8.68;100.00;100266.97;4995147;28;10005;-69
2021/12/24 08:56:15;;;;;;;;;4.00;2.00;;;;;8.53;100.00;100260.75;4985773;28;9884;-69
2021/12/24 08:58:41;;;;;;;;;3.25;2.00;;;;;8.50;100.00;100263.84;4986393;28;9938;-69
2021/12/24 09:01:08;;;;;;;;;3.50;3.50;;;;;8.49;100.00;100270.25;4985057;28;10078;-69
2021/12/24 09:03:35;;;;;;;;;6.00;2.25;;;;;8.50;100.00;100267.38;4985456;28;10048;-69
2021/12/24 09:06:01;;;;;;;;;5.00;2.00;;;;;8.47;100.00;100272.31;4986566;28;10860;-69
2021/12/24 09:08:28;;;;;;;;;1.00;1.00;;;;;8.46;100.00;100271.47;4986392;28;9954;-69
2021/12/24 09:10:54;;;;;;;;;1.75;1.25;;;;;8.48;100.00;100265.88;4987541;28;9806;-69
2021/12/24 09:13:21;;;;;;;;;5.25;3.00;;;;;8.47;100.00;100266.91;4985659;28;9731;-69
2021/12/24 09:15:47;;;;;;;;;1.00;1.00;;;;;8.47;100.00;100261.53;4998935;28;10555;-69
2021/12/24 09:18:14;;;;;;;;;5.50;5.50;;;;;8.47;100.00;100269.63;4985303;28;9924;-69
2021/12/24 09:20:43;;;;;;;;;1.00;1.00;;;;;8.47;100.00;100273.16;4983555;28;10769;-69
2021/12/24 09:23:11;;;;;;;;;1.25;1.25;;;;;8.46;100.00;100270.63;4985437;28;10068;-69
2021/12/24 09:25:40;;;;;;;;;4.00;4.00;;;;;8.46;100.00;100270.63;4985081;28;9749;-70
2021/12/24 09:28:08;;;;;;;;;2.75;2.50;;;;;8.54;100.00;100267.81;4985613;28;10098;-69
2021/12/24 09:30:35;;;;;;;;;3.00;3.00;;;;;8.52;100.00;100275.28;4986209;28;9866;-69
2021/12/24 09:33:03;;;;;;;;;2.00;2.00;;;;;8.49;100.00;100264.84;4983295;28;9953;-69
2021/12/24 09:35:31;;;;;;;;;2.00;2.00;;;;;8.51;100.00;100268.19;4983481;28;9853;-69
2021/12/24 09:37:59;;;;;;;;;4.00;4.00;;;;;8.48;100.00;100258.63;4980562;28;9861;-69
2021/12/24 09:40:26;;;;;;;;;6.00;2.00;;;;;8.49;100.00;100268.41;4986850;28;10821;-69
2021/12/24 09:42:53;;;;;;;;;7.25;5.00;;;;;8.50;100.00;100263.84;4983545;28;10078;-69
2021/12/24 09:45:20;;;;;;;;;1.75;1.75;;;;;8.48;100.00;100263.19;4984721;28;10104;-70
2021/12/24 09:47:47;;;;;;;;;4.75;2.50;;;;;8.49;100.00;100260.31;4985055;28;9916;-69
2021/12/24 09:50:19;;;;;;;;;6.50;3.00;;;;;8.49;100.00;100259.47;4984952;28;10032;-69
2021/12/24 09:52:46;;;;;;;;;6.00;3.00;;;;;8.49;100.00;100264.84;4984122;28;9991;-69
2021/12/24 09:55:16;;;;;;;;;4.00;3.00;;;;;8.51;100.00;100254.72;4982320;28;10237;-69
2021/12/24 09:57:43;;;;;;;;;3.75;3.75;;;;;8.51;100.00;100262.81;4983707;28;9939;-69
2021/12/24 10:00:12;;;;;;;;;1.75;1.50;;;;;8.51;100.00;100270.91;4983526;28;11100;-70
2021/12/24 10:02:44;;;;;;;;;7.50;6.00;;;;;8.51;100.00;100260.94;4998827;28;9934;-69
2021/12/24 10:05:26;;;;;;;;;5.50;2.00;;;;;8.52;100.00;100268.00;4983122;28;10103;-70
2021/12/24 10:08:04;;;;;;;;;4.00;4.00;;;;;8.53;100.00;100258.88;4984433;28;10739;-70
2021/12/24 10:10:32;;;;;;;;;1.00;1.00;;;;;8.56;100.00;100257.66;4985124;28;10132;-69
2021/12/24 10:13:23;;;;;;;;;4.75;3.00;;;;;8.93;100.00;100262.88;4985523;28;10901;-74
2021/12/24 10:15:58;;;;;;;;;4.50;4.50;;;;;8.72;100.00;100259.31;4984853;28;10171;-70
2021/12/24 10:18:30;;;;;;;;;2.75;2.75;;;;;8.68;100.00;100258.84;4983827;28;10003;-70
2021/12/24 10:21:05;;;;;;;;;2.00;2.00;;;;;8.66;100.00;100262.75;4984260;28;10227;-70
2021/12/24 10:23:47;;;;;;;;;5.00;3.00;;;;;8.66;100.00;100266.28;4984785;28;9958;-70
2021/12/24 10:26:19;;;;;;;;;6.75;6.00;;;;;8.61;100.00;100274.97;4985010;28;10114;-69
2021/12/24 10:29:20;;;;;;;;;10.00;6.00;;;;;8.61;100.00;100277.66;4983291;28;9952;-70
2021/12/24 10:31:52;;;;;;;;;5.00;4.00;;;;;8.57;100.00;100270.97;4983344;28;10190;-70
2021/12/24 10:34:22;;;;;;;;;4.25;4.00;;;;;8.59;100.00;100278.88;4984492;28;10093;-70
2021/12/24 10:37:04;;;;;;;;;8.00;8.00;;;;;8.66;100.00;100278.94;4983569;28;10072;-69
2021/12/24 10:39:37;;;;;;;;;10.00;6.25;;;;;8.63;100.00;100277.47;4984854;28;10248;-69
2021/12/24 10:42:26;;;;;;;;;4.00;4.00;;;;;9.25;100.00;100271.47;4999034;28;10399;-73
2021/12/24 10:44:55;;;;;;;;;6.00;4.00;;;;;9.23;100.00;100278.91;4984490;28;10096;-70
2021/12/24 10:47:27;;;;;;;;;8.00;5.25;;;;;8.94;100.00;100288.81;4983936;28;10041;-71
2021/12/24 10:50:28;;;;;;;;;4.75;4.75;;;;;8.88;100.00;100291.44;4986024;28;10021;-72
2021/12/24 10:53:19;;;;;;;;;4.75;4.00;;;;;10.56;100.00;100281.44;5003586;28;9970;-70
2021/12/24 10:55:52;;;;;;;;;4.00;3.00;;;;;11.81;100.00;100283.50;4988473;28;10116;-71
2021/12/24 10:58:23;;;;;;;;;6.00;6.00;;;;;10.29;96.83;100283.22;4986805;28;10015;-72
2021/12/24 11:00:56;;;;;;;;;5.00;3.25;;;;;9.73;100.00;100283.28;4987991;28;9715;-72
2021/12/24 11:03:26;;;;;;;;;6.50;3.50;;;;;9.43;100.00;100284.50;4987435;28;9597;-71
2021/12/24 11:05:55;;;;;;;;;2.75;2.75;;;;;9.23;100.00;100281.63;4978808;28;9782;-72
2021/12/24 11:08:26;;;;;;;;;3.00;3.00;;;;;9.17;100.00;100276.97;5002299;28;9847;-72
2021/12/24 11:10:59;;;;;;;;;2.50;2.50;;;;;9.13;100.00;100279.22;5002199;28;9708;-71
2021/12/24 11:13:31;;;;;;;;;4.25;4.25;;;;;9.02;100.00;100285.16;4988084;28;9853;-72
2021/12/24 11:16:02;;;;;;;;;4.75;4.75;;;;;9.02;100.00;100285.16;5001071;28;10157;-71
2021/12/24 11:18:34;;;;;;;;;2.00;2.00;;;;;8.99;100.00;100282.00;4987286;28;10135;-71
2021/12/24 11:21:07;;;;;;;;;2.00;2.00;;;;;8.93;100.00;100280.94;4986927;28;9936;-73
2021/12/24 11:23:36;;;;;;;;;1.75;1.75;;;;;8.92;100.00;100281.91;5002778;28;10012;-72
2021/12/24 11:26:08;;;;;;;;;5.00;5.00;;;;;8.92;100.00;100269.28;4986163;28;9867;-72
2021/12/24 11:28:36;;;;;;;;;4.00;4.00;;;;;8.86;100.00;100269.19;4982835;28;10110;-72
2021/12/24 11:31:08;;;;;;;;;4.00;4.00;;;;;8.84;100.00;100279.34;5001384;28;10344;-72
2021/12/24 11:33:38;;;;;;;;;3.50;3.50;;;;;8.76;100.00;100276.78;5001595;28;9962;-72
2021/12/24 11:36:07;;;;;;;;;4.50;4.50;;;;;8.76;100.00;100268.69;4985593;28;11002;-72
2021/12/24 11:38:36;;;;;;;;;4.75;4.00;;;;;8.74;100.00;100273.44;4984674;28;10277;-72
2021/12/24 11:41:06;;;;;;;;;4.00;3.75;;;;;8.70;100.00;100267.59;4985002;28;10643;-72
2021/12/24 11:43:36;;;;;;;;;4.25;3.00;;;;;8.73;100.00;100263.69;4984915;28;10074;-71
2021/12/24 11:46:06;;;;;;;;;4.50;3.00;;;;;8.76;100.00;100271.38;4983926;28;10065;-72
2021/12/24 11:48:34;;;;;;;;;5.50;5.50;;;;;8.75;100.00;100269.72;4986882;28;9850;-72
2021/12/24 11:51:15;;;;;;;;;6.00;4.50;;;;;8.79;100.00;100271.84;4986436;28;10131;-72
2021/12/24 11:53:43;;;;;;;;;3.00;3.00;;;;;8.79;100.00;100257.50;4984578;28;10049;-72
2021/12/24 11:56:13;;;;;;;;;5.50;4.50;;;;;8.82;100.00;100266.06;4986108;28;10110;-72
2021/12/24 11:58:50;;;;;;;;;4.25;4.25;;;;;8.79;100.00;100262.91;5000605;28;10100;-72
2021/12/24 12:01:22;;;;;;;;;5.50;5.50;;;;;8.79;100.00;100263.75;4985589;28;10153;-71
2021/12/24 12:03:52;;;;;;;;;6.50;4.25;;;;;8.79;100.00;100268.31;4987141;28;10181;-72
2021/12/24 12:06:24;;;;;;;;;4.25;4.25;;;;;8.81;100.00;100264.38;4987004;28;9943;-72
2021/12/24 12:08:52;;;;;;;;;4.00;2.50;;;;;8.77;100.00;100270.34;4987002;28;10146;-72
2021/12/24 12:11:20;;;;;;;;;4.75;4.75;;;;;8.74;100.00;100262.66;4985137;28;9895;-71
2021/12/24 12:13:50;;;;;;;;;6.50;6.50;;;;;8.76;100.00;100269.53;4984003;28;10169;-72
2021/12/24 12:16:27;;;;;;;;;5.00;5.00;;;;;8.72;100.00;100270.94;4986428;28;10205;-72
2021/12/24 12:19:14;;;;;;;;;5.75;3.00;;;;;8.77;100.00;100268.50;4987097;28;10695;-72
2021/12/24 12:22:45;;;;;;;;;8.75;8.50;;;;;8.70;100.00;100266.75;4987387;28;10138;-73
2021/12/24 12:25:29;;;;;;;;;11.00;8.00;;;;;8.71;100.00;100271.97;4998470;28;10482;-73
2021/12/24 12:27:59;;;;;;;;;5.00;5.00;;;;;8.74;100.00;100273.44;5000105;28;10420;-73
2021/12/24 12:30:46;;;;;;;;;10.00;9.00;;;;;8.75;100.00;100267.03;4986861;28;10179;-73
2021/12/24 12:33:31;;;;;;;;;8.25;5.50;;;;;8.70;100.00;100267.59;4987750;28;10280;-71
2021/12/24 12:36:04;;;;;;;;;4.75;4.25;;;;;8.66;100.00;100265.44;5003196;28;10112;-71
2021/12/24 12:38:44;;;;;;;;;8.00;3.75;;;;;8.68;100.00;100269.66;5005275;28;10205;-73
2021/12/24 12:41:25;;;;;;;;;6.75;5.75;;;;;8.86;100.00;100271.91;4993722;28;10189;-73
2021/12/24 12:43:54;;;;;;;;;5.25;5.00;;;;;8.76;100.00;100264.13;4995964;28;10220;-73
2021/12/24 12:46:32;;;;;;;;;6.00;4.00;;;;;8.80;100.00;100269.97;4994604;28;10157;-74
2021/12/24 12:49:01;;;;;;;;;2.50;2.50;;;;;8.80;100.00;100269.97;4996150;28;9924;-74
2021/12/24 12:51:58;;;;;;;;;11.25;9.00;;;;;8.71;100.00;100263.88;4991375;28;9929;-73
2021/12/24 12:54:38;;;;;;;;;2.00;2.00;;;;;8.74;100.00;100268.88;4990281;28;10170;-73
2021/12/24 12:57:19;;;;;;;;;3.75;3.50;;;;;8.72;100.00;100270.09;4986833;28;9934;-72
2021/12/24 13:00:07;;;;;;;;;8.75;4.25;;;;;8.67;100.00;100275.22;4994220;28;10045;-73
2021/12/24 13:05:38;;;;;;;;;8.25;5.00;;;;;8.59;100.00;100277.00;4992541;28;10194;-72
2021/12/24 13:08:13;;;;;;;;;5.00;4.00;;;;;8.56;100.00;100284.66;4996063;28;10200;-72
2021/12/24 13:10:40;;;;;;;;;5.00;4.50;;;;;8.57;100.00;100286.31;5009650;28;10092;-73
2021/12/24 13:13:07;;;;;;;;;3.25;2.75;;;;;8.51;100.00;100287.91;4992985;28;10933;-73
2021/12/24 13:15:44;;;;;;;;;4.50;4.50;;;;;8.53;100.00;100282.34;4995826;28;10144;-73
2021/12/24 13:18:33;;;;;;;;;1.25;1.25;;;;;8.40;100.00;100292.94;5010881;28;10230;-73
2021/12/24 13:23:32;;;;;;;;;6.00;2.00;;;;;8.45;100.00;100287.84;4992067;28;10237;-74
2021/12/24 13:26:19;;;;;;;;;1.75;1.75;;;;;8.43;100.00;100289.91;4992041;28;11053;-73
2021/12/24 13:29:12;;;;;;;;;2.25;1.75;;;;;8.55;100.00;100286.50;5001245;28;10172;-74
2021/12/24 13:31:51;;;;;;;;;3.00;3.00;;;;;8.57;100.00;100287.16;4987683;28;9965;-74